Main page
METAR-TAF:

METAR-TAF

Airports :

Plzeň, Czech Republic

latitude: 49-40-31N, longitude: 13-16-29E, elevation: 362 m

Current weather observation

The report was made 40 minutes ago, at 13:00 UTC
Wind 9 kt from the Southwest, varying between South/Southwest and West
Temperature 12°C
Humidity 67%
Pressure 1015 hPa
Visibility 10 km or more
Few clouds at a height of 3300 ft
Scattered clouds at a height of 5800 ft

METAR: LKLN 221300Z AUTO 23009KT 200V270 9999 FEW033 SCT058 12/06 Q1015

Time: 15:40 (13:40 UTC)


TAF: missing

Weather observations and forecasts of more than 4000 airports (METAR and TAF reports).

The available stations are represented by yellow and red dots on the map.

Hover mouse over dot to see the name of the station.

Then click to see weather observations and forecasts.

To change the map : click on the green buttons with a black cross to zoom in, on the green button with a dash to zoom out, or on the green arrows for adjacent maps.


METAR-TAF: